sensor_id;sensor_type;location;lat;lon;timestamp;pressure;altitude;pressure_sealevel;temperature;humidity
34925;BME280;21130;51.728;8.748;2023-04-04T00:00:19;101793.91;;;-3.72;100.00
34925;BME280;21130;51.728;8.748;2023-04-04T00:02:45;101794.06;;;-3.73;100.00
34925;BME280;21130;51.728;8.748;2023-04-04T00:05:12;101793.22;;;-3.74;100.00
34925;BME280;21130;51.728;8.748;2023-04-04T00:07:39;101791.72;;;-3.78;100.00
34925;BME280;21130;51.728;8.748;2023-04-04T00:10:07;101793.66;;;-3.80;100.00
34925;BME280;21130;51.728;8.748;2023-04-04T00:12:35;101797.00;;;-3.76;100.00
34925;BME280;21130;51.728;8.748;2023-04-04T00:15:02;101792.81;;;-3.80;100.00
34925;BME280;21130;51.728;8.748;2023-04-04T00:17:29;101798.63;;;-3.74;100.00
34925;BME280;21130;51.728;8.748;2023-04-04T00:19:55;101798.25;;;-3.80;100.00
34925;BME280;21130;51.728;8.748;2023-04-04T00:22:22;101791.06;;;-3.81;100.00
34925;BME280;21130;51.728;8.748;2023-04-04T00:24:50;101801.31;;;-3.85;100.00
34925;BME280;21130;51.728;8.748;2023-04-04T00:27:17;101800.44;;;-3.85;100.00
34925;BME280;21130;51.728;8.748;2023-04-04T00:29:44;101799.78;;;-3.89;100.00
34925;BME280;21130;51.728;8.748;2023-04-04T00:32:10;101805.38;;;-3.91;100.00
34925;BME280;21130;51.728;8.748;2023-04-04T00:34:37;101806.31;;;-3.92;100.00
34925;BME280;21130;51.728;8.748;2023-04-04T00:37:03;101812.00;;;-3.95;100.00
34925;BME280;21130;51.728;8.748;2023-04-04T00:39:31;101808.31;;;-3.94;100.00
34925;BME280;21130;51.728;8.748;2023-04-04T00:41:59;101807.69;;;-3.97;100.00
34925;BME280;21130;51.728;8.748;2023-04-04T00:44:26;101803.47;;;-4.01;100.00
34925;BME280;21130;51.728;8.748;2023-04-04T00:46:52;101803.69;;;-4.04;100.00
34925;BME280;21130;51.728;8.748;2023-04-04T00:49:19;101800.25;;;-4.06;100.00
34925;BME280;21130;51.728;8.748;2023-04-04T00:51:45;101798.41;;;-4.06;100.00
34925;BME280;21130;51.728;8.748;2023-04-04T00:54:12;101798.75;;;-4.10;100.00
34925;BME280;21130;51.728;8.748;2023-04-04T00:56:38;101797.91;;;-4.11;100.00
34925;BME280;21130;51.728;8.748;2023-04-04T00:59:07;101789.13;;;-4.15;100.00
34925;BME280;21130;51.728;8.748;2023-04-04T01:01:34;101799.22;;;-4.17;100.00
34925;BME280;21130;51.728;8.748;2023-04-04T01:04:01;101801.06;;;-4.17;100.00
34925;BME280;21130;51.728;8.748;2023-04-04T01:06:28;101798.34;;;-4.17;100.00
34925;BME280;21130;51.728;8.748;2023-04-04T01:08:57;101789.47;;;-4.19;100.00
34925;BME280;21130;51.728;8.748;2023-04-04T01:11:24;101798.50;;;-4.19;100.00
34925;BME280;21130;51.728;8.748;2023-04-04T01:13:51;101794.91;;;-4.19;100.00
34925;BME280;21130;51.728;8.748;2023-04-04T01:16:19;101796.13;;;-4.23;100.00
34925;BME280;21130;51.728;8.748;2023-04-04T01:18:47;101783.44;;;-4.23;100.00
34925;BME280;21130;51.728;8.748;2023-04-04T01:21:15;101795.41;;;-4.14;100.00
34925;BME280;21130;51.728;8.748;2023-04-04T01:23:48;101793.94;;;-4.18;100.00
34925;BME280;21130;51.728;8.748;2023-04-04T01:26:19;101788.75;;;-4.21;100.00
34925;BME280;21130;51.728;8.748;2023-04-04T01:28:47;101791.66;;;-4.24;100.00
34925;BME280;21130;51.728;8.748;2023-04-04T01:31:20;101791.06;;;-4.28;100.00
34925;BME280;21130;51.728;8.748;2023-04-04T01:33:53;101791.28;;;-4.31;100.00
34925;BME280;21130;51.728;8.748;2023-04-04T01:36:26;101792.50;;;-4.35;100.00
34925;BME280;21130;51.728;8.748;2023-04-04T01:38:58;101794.22;;;-4.34;100.00
34925;BME280;21130;51.728;8.748;2023-04-04T01:41:30;101780.81;;;-4.36;100.00
34925;BME280;21130;51.728;8.748;2023-04-04T01:43:57;101778.84;;;-4.33;100.00
34925;BME280;21130;51.728;8.748;2023-04-04T01:46:24;101778.19;;;-4.37;100.00
34925;BME280;21130;51.728;8.748;2023-04-04T01:48:51;101774.88;;;-4.41;100.00
34925;BME280;21130;51.728;8.748;2023-04-04T01:51:18;101773.28;;;-4.32;100.00
34925;BME280;21130;51.728;8.748;2023-04-04T01:53:44;101769.22;;;-4.38;100.00
34925;BME280;21130;51.728;8.748;2023-04-04T01:56:11;101767.84;;;-4.43;100.00
34925;BME280;21130;51.728;8.748;2023-04-04T01:58:39;101762.53;;;-4.45;100.00
34925;BME280;21130;51.728;8.748;2023-04-04T02:01:05;101760.81;;;-4.46;100.00
34925;BME280;21130;51.728;8.748;2023-04-04T02:03:32;101754.53;;;-4.46;100.00
34925;BME280;21130;51.728;8.748;2023-04-04T02:05:58;101762.09;;;-4.51;100.00
34925;BME280;21130;51.728;8.748;2023-04-04T02:08:24;101762.00;;;-4.50;100.00
34925;BME280;21130;51.728;8.748;2023-04-04T02:10:51;101760.16;;;-4.49;100.00
34925;BME280;21130;51.728;8.748;2023-04-04T02:13:18;101762.00;;;-4.50;100.00
34925;BME280;21130;51.728;8.748;2023-04-04T02:15:45;101760.28;;;-4.51;100.00
34925;BME280;21130;51.728;8.748;2023-04-04T02:18:13;101764.63;;;-4.48;100.00
34925;BME280;21130;51.728;8.748;2023-04-04T02:20:40;101763.97;;;-4.52;100.00
34925;BME280;21130;51.728;8.748;2023-04-04T02:23:06;101763.97;;;-4.52;100.00
34925;BME280;21130;51.728;8.748;2023-04-04T02:25:33;101770.47;;;-4.54;100.00
34925;BME280;21130;51.728;8.748;2023-04-04T02:27:59;101760.75;;;-4.57;100.00
34925;BME280;21130;51.728;8.748;2023-04-04T02:30:26;101761.72;;;-4.58;100.00
34925;BME280;21130;51.728;8.748;2023-04-04T02:32:56;101759.78;;;-4.56;100.00
34925;BME280;21130;51.728;8.748;2023-04-04T02:35:23;101761.84;;;-4.60;100.00
34925;BME280;21130;51.728;8.748;2023-04-04T02:37:49;101753.84;;;-4.61;100.00
34925;BME280;21130;51.728;8.748;2023-04-04T02:40:15;101755.56;;;-4.60;100.00
34925;BME280;21130;51.728;8.748;2023-04-04T02:42:43;101752.00;;;-4.61;100.00
34925;BME280;21130;51.728;8.748;2023-04-04T02:45:10;101751.00;;;-4.60;100.00
34925;BME280;21130;51.728;8.748;2023-04-04T02:47:39;101750.13;;;-4.60;100.00
34925;BME280;21130;51.728;8.748;2023-04-04T02:50:07;101752.00;;;-4.61;100.00
34925;BME280;21130;51.728;8.748;2023-04-04T02:52:34;101744.09;;;-4.64;100.00
34925;BME280;21130;51.728;8.748;2023-04-04T02:55:00;101742.34;;;-4.65;100.00
34925;BME280;21130;51.728;8.748;2023-04-04T02:57:28;101738.69;;;-4.64;100.00
34925;BME280;21130;51.728;8.748;2023-04-04T02:59:54;101747.91;;;-4.66;100.00
34925;BME280;21130;51.728;8.748;2023-04-04T03:02:22;101746.06;;;-4.66;100.00
34925;BME280;21130;51.728;8.748;2023-04-04T03:04:49;101752.34;;;-4.65;100.00
34925;BME280;21130;51.728;8.748;2023-04-04T03:07:16;101748.63;;;-4.64;100.00
34925;BME280;21130;51.728;8.748;2023-04-04T03:09:43;101746.91;;;-4.65;100.00
34925;BME280;21130;51.728;8.748;2023-04-04T03:12:09;101745.94;;;-4.64;100.00
34925;BME280;21130;51.728;8.748;2023-04-04T03:14:36;101746.81;;;-4.64;100.00
34925;BME280;21130;51.728;8.748;2023-04-04T03:17:03;101735.97;;;-4.64;100.00
34925;BME280;21130;51.728;8.748;2023-04-04T03:19:29;101739.31;;;-4.60;100.00
34925;BME280;21130;51.728;8.748;2023-04-04T03:21:57;101737.59;;;-4.61;100.00
34925;BME280;21130;51.728;8.748;2023-04-04T03:24:24;101740.16;;;-4.60;100.00
34925;BME280;21130;51.728;8.748;2023-04-04T03:26:52;101729.31;;;-4.60;100.00
34925;BME280;21130;51.728;8.748;2023-04-04T03:29:18;101729.66;;;-4.64;100.00
34925;BME280;21130;51.728;8.748;2023-04-04T03:31:45;101717.97;;;-4.65;100.00
34925;BME280;21130;51.728;8.748;2023-04-04T03:34:12;101710.84;;;-4.66;100.00
34925;BME280;21130;51.728;8.748;2023-04-04T03:36:38;101709.25;;;-4.68;100.00
34925;BME280;21130;51.728;8.748;2023-04-04T03:39:05;101713.66;;;-4.67;100.00
34925;BME280;21130;51.728;8.748;2023-04-04T03:41:33;101714.66;;;-4.68;100.00
34925;BME280;21130;51.728;8.748;2023-04-04T03:44:02;101713.78;;;-4.69;100.00
34925;BME280;21130;51.728;8.748;2023-04-04T03:46:29;101712.03;;;-4.70;100.00
34925;BME280;21130;51.728;8.748;2023-04-04T03:48:55;101705.88;;;-4.72;100.00
34925;BME280;21130;51.728;8.748;2023-04-04T03:51:22;101705.78;;;-4.70;100.00
34925;BME280;21130;51.728;8.748;2023-04-04T03:53:49;101717.47;;;-4.70;100.00
34925;BME280;21130;51.728;8.748;2023-04-04T03:56:15;101700.34;;;-4.70;100.00
34925;BME280;21130;51.728;8.748;2023-04-04T03:58:43;101703.16;;;-4.72;100.00
34925;BME280;21130;51.728;8.748;2023-04-04T04:01:10;101706.00;;;-4.73;100.00
34925;BME280;21130;51.728;8.748;2023-04-04T04:03:36;101711.44;;;-4.73;100.00
34925;BME280;21130;51.728;8.748;2023-04-04T04:06:03;101700.47;;;-4.72;100.00
34925;BME280;21130;51.728;8.748;2023-04-04T04:08:29;101704.91;;;-4.71;100.00
34925;BME280;21130;51.728;8.748;2023-04-04T04:11:02;101701.34;;;-4.71;100.00
34925;BME280;21130;51.728;8.748;2023-04-04T04:13:31;101704.91;;;-4.71;100.00
34925;BME280;21130;51.728;8.748;2023-04-04T04:15:58;101704.91;;;-4.71;100.00
34925;BME280;21130;51.728;8.748;2023-04-04T04:18:25;101705.78;;;-4.70;100.00
34925;BME280;21130;51.728;8.748;2023-04-04T04:20:55;101706.63;;;-4.70;100.00
34925;BME280;21130;51.728;8.748;2023-04-04T04:23:22;101702.22;;;-4.71;100.00
34925;BME280;21130;51.728;8.748;2023-04-04T04:25:48;101712.19;;;-4.71;100.00
34925;BME280;21130;51.728;8.748;2023-04-04T04:28:14;101704.91;;;-4.71;100.00
34925;BME280;21130;51.728;8.748;2023-04-04T04:30:41;101696.31;;;-4.65;100.00
34925;BME280;21130;51.728;8.748;2023-04-04T04:33:09;101694.94;;;-4.70;100.00
34925;BME280;21130;51.728;8.748;2023-04-04T04:35:36;101693.22;;;-4.71;100.00
34925;BME280;21130;51.728;8.748;2023-04-04T04:38:03;101697.75;;;-4.72;100.00
34925;BME280;21130;51.728;8.748;2023-04-04T04:40:30;101696.03;;;-4.73;100.00
34925;BME280;21130;51.728;8.748;2023-04-04T04:42:57;101690.97;;;-4.78;100.00
34925;BME280;21130;51.728;8.748;2023-04-04T04:45:24;101693.78;;;-4.79;100.00
34925;BME280;21130;51.728;8.748;2023-04-04T04:47:50;101686.66;;;-4.80;100.00
34925;BME280;21130;51.728;8.748;2023-04-04T04:50:18;101691.06;;;-4.79;100.00
34925;BME280;21130;51.728;8.748;2023-04-04T04:52:44;101694.78;;;-4.80;100.00
34925;BME280;21130;51.728;8.748;2023-04-04T04:55:11;101691.06;;;-4.79;100.00
34925;BME280;21130;51.728;8.748;2023-04-04T04:57:37;101696.28;;;-4.76;100.00
34925;BME280;21130;51.728;8.748;2023-04-04T05:00:05;101692.69;;;-4.77;100.00
34925;BME280;21130;51.728;8.748;2023-04-04T05:02:31;101694.53;;;-4.77;100.00
34925;BME280;21130;51.728;8.748;2023-04-04T05:04:59;101703.50;;;-4.77;100.00
34925;BME280;21130;51.728;8.748;2023-04-04T05:07:27;101701.69;;;-4.76;100.00
34925;BME280;21130;51.728;8.748;2023-04-04T05:09:53;101703.41;;;-4.75;100.00
34925;BME280;21130;51.728;8.748;2023-04-04T05:12:20;101699.75;;;-4.74;100.00
34925;BME280;21130;51.728;8.748;2023-04-04T05:14:47;101701.44;;;-4.73;100.00
34925;BME280;21130;51.728;8.748;2023-04-04T05:17:13;101708.59;;;-4.72;100.00
34925;BME280;21130;51.728;8.748;2023-04-04T05:19:40;101704.69;;;-4.68;100.00
34925;BME280;21130;51.728;8.748;2023-04-04T05:22:06;101704.69;;;-4.68;100.00
34925;BME280;21130;51.728;8.748;2023-04-04T05:24:34;101710.09;;;-4.68;100.00
34925;BME280;21130;51.728;8.748;2023-04-04T05:27:00;101721.44;;;-4.63;100.00
34925;BME280;21130;51.728;8.748;2023-04-04T05:29:27;101718.72;;;-4.63;100.00
34925;BME280;21130;51.728;8.748;2023-04-04T05:31:53;101717.63;;;-4.60;100.00
34925;BME280;21130;51.728;8.748;2023-04-04T05:34:20;101719.25;;;-4.58;100.00
34925;BME280;21130;51.728;8.748;2023-04-04T05:36:46;101715.34;;;-4.53;100.00
34925;BME280;21130;51.728;8.748;2023-04-04T05:39:13;101714.22;;;-4.51;100.00
34925;BME280;21130;51.728;8.748;2023-04-04T05:41:40;101717.31;;;-4.44;100.00
34925;BME280;21130;51.728;8.748;2023-04-04T05:44:07;101726.94;;;-4.40;100.00
34925;BME280;21130;51.728;8.748;2023-04-04T05:46:33;101725.59;;;-4.35;100.00
34925;BME280;21130;51.728;8.748;2023-04-04T05:49:00;101725.25;;;-4.30;100.00
34925;BME280;21130;51.728;8.748;2023-04-04T05:51:26;101718.38;;;-4.23;100.00
34925;BME280;21130;51.728;8.748;2023-04-04T05:53:53;101721.50;;;-4.16;100.00
34925;BME280;21130;51.728;8.748;2023-04-04T05:56:19;101719.28;;;-4.11;100.00
34925;BME280;21130;51.728;8.748;2023-04-04T05:58:47;101731.75;;;-3.97;100.00
34925;BME280;21130;51.728;8.748;2023-04-04T06:01:13;101726.47;;;-3.87;100.00
34925;BME280;21130;51.728;8.748;2023-04-04T06:03:40;101734.75;;;-3.78;100.00
34925;BME280;21130;51.728;8.748;2023-04-04T06:06:06;101739.81;;;-3.62;100.00
34925;BME280;21130;51.728;8.748;2023-04-04T06:08:33;101741.28;;;-3.47;100.00
34925;BME280;21130;51.728;8.748;2023-04-04T06:10:59;101736.34;;;-3.30;100.00
34925;BME280;21130;51.728;8.748;2023-04-04T06:13:26;101735.72;;;-3.22;100.00
34925;BME280;21130;51.728;8.748;2023-04-04T06:19:01;101733.69;;;-2.87;100.00
34925;BME280;21130;51.728;8.748;2023-04-04T06:21:27;101733.28;;;-2.71;100.00
34925;BME280;21130;51.728;8.748;2023-04-04T06:23:54;101738.88;;;-2.51;100.00
34925;BME280;21130;51.728;8.748;2023-04-04T06:26:21;101734.75;;;-2.34;100.00
34925;BME280;21130;51.728;8.748;2023-04-04T06:28:47;101744.03;;;-2.16;100.00
34925;BME280;21130;51.728;8.748;2023-04-04T06:31:14;101745.03;;;-1.96;100.00
34925;BME280;21130;51.728;8.748;2023-04-04T06:33:42;101750.94;;;-1.70;100.00
34925;BME280;21130;51.728;8.748;2023-04-04T06:36:10;101743.28;;;-1.55;100.00
34925;BME280;21130;51.728;8.748;2023-04-04T06:38:36;101743.97;;;-1.32;100.00
34925;BME280;21130;51.728;8.748;2023-04-04T06:41:03;101749.34;;;-1.11;100.00
34925;BME280;21130;51.728;8.748;2023-04-04T06:43:30;101754.53;;;-0.98;100.00
34925;BME280;21130;51.728;8.748;2023-04-04T06:45:56;101757.44;;;-0.90;100.00
34925;BME280;21130;51.728;8.748;2023-04-04T06:48:22;101750.25;;;-0.91;100.00
34925;BME280;21130;51.728;8.748;2023-04-04T06:50:49;101755.44;;;-0.88;100.00
34925;BME280;21130;51.728;8.748;2023-04-04T06:53:17;101760.78;;;-0.77;100.00
34925;BME280;21130;51.728;8.748;2023-04-04T06:55:43;101763.22;;;-0.74;100.00
34925;BME280;21130;51.728;8.748;2023-04-04T06:58:10;101761.06;;;-0.60;100.00
34925;BME280;21130;51.728;8.748;2023-04-04T07:00:36;101766.00;;;-0.45;100.00
34925;BME280;21130;51.728;8.748;2023-04-04T07:03:03;101764.56;;;-0.39;100.00
34925;BME280;21130;51.728;8.748;2023-04-04T07:05:29;101757.97;;;-0.27;100.00
34925;BME280;21130;51.728;8.748;2023-04-04T07:07:56;101756.09;;;-0.16;100.00
34925;BME280;21130;51.728;8.748;2023-04-04T07:10:24;101762.28;;;-0.05;100.00
34925;BME280;21130;51.728;8.748;2023-04-04T07:12:51;101760.09;;;0.18;100.00
34925;BME280;21130;51.728;8.748;2023-04-04T07:15:17;101765.94;;;0.43;100.00
34925;BME280;21130;51.728;8.748;2023-04-04T07:17:44;101753.22;;;0.61;100.00
34925;BME280;21130;51.728;8.748;2023-04-04T07:20:11;101760.75;;;0.77;100.00
34925;BME280;21130;51.728;8.748;2023-04-04T07:22:37;101755.56;;;0.84;100.00
34925;BME280;21130;51.728;8.748;2023-04-04T07:25:05;101761.03;;;1.12;100.00
34925;BME280;21130;51.728;8.748;2023-04-04T07:27:33;101752.16;;;1.27;100.00
34925;BME280;21130;51.728;8.748;2023-04-04T07:30:02;101750.16;;;1.47;100.00
34925;BME280;21130;51.728;8.748;2023-04-04T07:32:29;101754.78;;;1.65;100.00
34925;BME280;21130;51.728;8.748;2023-04-04T07:34:56;101752.28;;;1.89;100.00
34925;BME280;21130;51.728;8.748;2023-04-04T07:37:22;101743.56;;;2.12;100.00
34925;BME280;21130;51.728;8.748;2023-04-04T07:39:50;101740.09;;;2.28;100.00
34925;BME280;21130;51.728;8.748;2023-04-04T07:42:18;101745.91;;;2.25;100.00
34925;BME280;21130;51.728;8.748;2023-04-04T07:44:48;101739.50;;;2.42;100.00
34925;BME280;21130;51.728;8.748;2023-04-04T07:47:15;101732.31;;;2.67;100.00
34925;BME280;21130;51.728;8.748;2023-04-04T07:49:42;101736.69;;;2.86;100.00
34925;BME280;21130;51.728;8.748;2023-04-04T07:52:08;101741.53;;;3.00;100.00
34925;BME280;21130;51.728;8.748;2023-04-04T07:54:35;101741.78;;;3.23;100.00
34925;BME280;21130;51.728;8.748;2023-04-04T07:57:01;101731.00;;;3.30;85.41
34925;BME280;21130;51.728;8.748;2023-04-04T07:59:29;101734.47;;;3.49;77.00
34925;BME280;21130;51.728;8.748;2023-04-04T08:01:57;101727.97;;;3.50;73.97
34925;BME280;21130;51.728;8.748;2023-04-04T08:04:23;101725.78;;;3.78;74.92
34925;BME280;21130;51.728;8.748;2023-04-04T08:06:50;101728.88;;;3.83;62.94
34925;BME280;21130;51.728;8.748;2023-04-04T08:09:17;101726.81;;;4.18;65.76
34925;BME280;21130;51.728;8.748;2023-04-04T08:11:43;101721.31;;;4.34;65.55
34925;BME280;21130;51.728;8.748;2023-04-04T08:14:10;101718.56;;;4.26;61.48
34925;BME280;21130;51.728;8.748;2023-04-04T08:16:37;101715.31;;;4.14;58.75
34925;BME280;21130;51.728;8.748;2023-04-04T08:19:05;101720.28;;;4.19;61.37
34925;BME280;21130;51.728;8.748;2023-04-04T08:21:32;101717.91;;;3.99;62.09
34925;BME280;21130;51.728;8.748;2023-04-04T08:23:59;101716.00;;;4.16;61.67
34925;BME280;21130;51.728;8.748;2023-04-04T08:26:25;101720.09;;;4.28;60.43
34925;BME280;21130;51.728;8.748;2023-04-04T08:28:51;101713.56;;;4.54;61.49
34925;BME280;21130;51.728;8.748;2023-04-04T08:31:18;101716.03;;;4.80;59.69
34925;BME280;21130;51.728;8.748;2023-04-04T08:33:45;101708.72;;;5.04;55.11
34925;BME280;21130;51.728;8.748;2023-04-04T08:36:12;101713.50;;;5.41;55.62
34925;BME280;21130;51.728;8.748;2023-04-04T08:38:39;101715.00;;;5.75;54.21
34925;BME280;21130;51.728;8.748;2023-04-04T08:41:05;101714.03;;;6.14;52.23
34925;BME280;21130;51.728;8.748;2023-04-04T08:43:33;101715.25;;;6.11;51.44
34925;BME280;21130;51.728;8.748;2023-04-04T08:46:03;101717.31;;;6.32;49.97
34925;BME280;21130;51.728;8.748;2023-04-04T08:48:31;101720.16;;;6.39;49.03
34925;BME280;21130;51.728;8.748;2023-04-04T08:50:59;101723.06;;;7.05;48.85
34925;BME280;21130;51.728;8.748;2023-04-04T08:53:28;101713.72;;;6.76;47.12
34925;BME280;21130;51.728;8.748;2023-04-04T08:55:55;101719.94;;;7.44;44.49
34925;BME280;21130;51.728;8.748;2023-04-04T08:58:24;101721.09;;;7.93;44.00
34925;BME280;21130;51.728;8.748;2023-04-04T09:00:51;101732.59;;;7.96;45.44
34925;BME280;21130;51.728;8.748;2023-04-04T09:03:21;101716.31;;;8.30;45.60
34925;BME280;21130;51.728;8.748;2023-04-04T09:05:49;101720.91;;;8.22;43.94
34925;BME280;21130;51.728;8.748;2023-04-04T09:08:17;101717.91;;;8.67;43.18
34925;BME280;21130;51.728;8.748;2023-04-04T09:10:45;101716.91;;;9.23;42.84
34925;BME280;21130;51.728;8.748;2023-04-04T09:13:13;101714.94;;;9.10;42.28
34925;BME280;21130;51.728;8.748;2023-04-04T09:15:40;101716.00;;;9.70;39.38
34925;BME280;21130;51.728;8.748;2023-04-04T09:18:08;101714.59;;;9.26;40.42
34925;BME280;21130;51.728;8.748;2023-04-04T09:20:36;101717.84;;;8.89;40.38
34925;BME280;21130;51.728;8.748;2023-04-04T09:23:04;101705.31;;;8.99;39.51
34925;BME280;21130;51.728;8.748;2023-04-04T09:25:32;101712.13;;;8.97;39.83
34925;BME280;21130;51.728;8.748;2023-04-04T09:28:00;101709.06;;;10.14;39.02
34925;BME280;21130;51.728;8.748;2023-04-04T09:30:29;101698.19;;;10.40;38.05
34925;BME280;21130;51.728;8.748;2023-04-04T09:32:55;101702.59;;;10.94;36.92
34925;BME280;21130;51.728;8.748;2023-04-04T09:35:22;101702.72;;;11.19;36.68
34925;BME280;21130;51.728;8.748;2023-04-04T09:37:49;101708.22;;;11.71;37.61
34925;BME280;21130;51.728;8.748;2023-04-04T09:40:16;101704.56;;;12.08;36.21
34925;BME280;21130;51.728;8.748;2023-04-04T09:42:43;101686.75;;;11.84;34.65
34925;BME280;21130;51.728;8.748;2023-04-04T09:45:11;101699.50;;;11.22;35.91
34925;BME280;21130;51.728;8.748;2023-04-04T09:47:39;101696.47;;;12.07;36.20
34925;BME280;21130;51.728;8.748;2023-04-04T09:50:07;101684.44;;;12.82;34.70
34925;BME280;21130;51.728;8.748;2023-04-04T09:52:34;101689.16;;;13.00;34.10
34925;BME280;21130;51.728;8.748;2023-04-04T09:55:02;101683.25;;;13.26;32.07
34925;BME280;21130;51.728;8.748;2023-04-04T09:57:30;101683.25;;;13.26;32.64
34925;BME280;21130;51.728;8.748;2023-04-04T09:59:57;101691.09;;;12.37;31.99
34925;BME280;21130;51.728;8.748;2023-04-04T10:02:29;101681.81;;;12.18;33.59
34925;BME280;21130;51.728;8.748;2023-04-04T10:04:55;101693.00;;;11.86;33.73
34925;BME280;21130;51.728;8.748;2023-04-04T10:07:23;101683.91;;;11.98;34.12
34925;BME280;21130;51.728;8.748;2023-04-04T10:09:51;101685.41;;;11.94;35.00
34925;BME280;21130;51.728;8.748;2023-04-04T10:12:21;101683.75;;;12.43;33.68
34925;BME280;21130;51.728;8.748;2023-04-04T10:14:48;101682.59;;;12.50;33.04
34925;BME280;21130;51.728;8.748;2023-04-04T10:17:15;101675.59;;;12.85;32.45
34925;BME280;21130;51.728;8.748;2023-04-04T10:19:43;101674.03;;;12.52;32.73
34925;BME280;21130;51.728;8.748;2023-04-04T10:22:10;101664.47;;;12.41;34.77
34925;BME280;21130;51.728;8.748;2023-04-04T10:24:36;101667.63;;;12.26;33.24
34925;BME280;21130;51.728;8.748;2023-04-04T10:27:03;101669.97;;;10.76;32.61
34925;BME280;21130;51.728;8.748;2023-04-04T10:29:29;101670.50;;;10.98;32.78
34925;BME280;21130;51.728;8.748;2023-04-04T10:31:59;101661.88;;;9.94;33.96
34925;BME280;21130;51.728;8.748;2023-04-04T10:34:30;101663.16;;;10.25;35.13
34925;BME280;21130;51.728;8.748;2023-04-04T10:37:05;101661.72;;;10.36;39.12
34925;BME280;21130;51.728;8.748;2023-04-04T10:39:36;101653.25;;;10.82;37.39
34925;BME280;21130;51.728;8.748;2023-04-04T10:42:05;101656.97;;;11.21;36.20
34925;BME280;21130;51.728;8.748;2023-04-04T10:44:32;101646.31;;;11.88;34.56
34925;BME280;21130;51.728;8.748;2023-04-04T10:47:03;101639.94;;;11.81;35.53
34925;BME280;21130;51.728;8.748;2023-04-04T10:49:34;101639.81;;;12.26;34.01
34925;BME280;21130;51.728;8.748;2023-04-04T10:52:03;101635.19;;;12.57;33.50
34925;BME280;21130;51.728;8.748;2023-04-04T10:54:29;101642.59;;;12.26;33.67
34925;BME280;21130;51.728;8.748;2023-04-04T10:56:56;101631.34;;;12.77;33.25
34925;BME280;21130;51.728;8.748;2023-04-04T10:59:25;101628.69;;;12.63;32.62
34925;BME280;21130;51.728;8.748;2023-04-04T11:01:56;101629.38;;;13.32;30.90
34925;BME280;21130;51.728;8.748;2023-04-04T11:04:32;101613.97;;;12.19;32.91
34925;BME280;21130;51.728;8.748;2023-04-04T11:07:08;101620.72;;;11.41;35.15
34925;BME280;21130;51.728;8.748;2023-04-04T11:09:48;101625.19;;;10.39;37.84
34925;BME280;21130;51.728;8.748;2023-04-04T11:12:15;101628.06;;;10.77;37.47
34925;BME280;21130;51.728;8.748;2023-04-04T11:14:56;101610.31;;;10.85;37.03
34925;BME280;21130;51.728;8.748;2023-04-04T11:17:39;101610.44;;;10.25;36.60
34925;BME280;21130;51.728;8.748;2023-04-04T11:20:07;101613.03;;;10.07;35.40
34925;BME280;21130;51.728;8.748;2023-04-04T11:22:35;101607.69;;;10.12;36.07
34925;BME280;21130;51.728;8.748;2023-04-04T11:25:27;101601.06;;;10.33;37.17
34925;BME280;21130;51.728;8.748;2023-04-04T11:27:55;101595.34;;;11.31;37.20
34925;BME280;21130;51.728;8.748;2023-04-04T11:30:21;101581.75;;;12.05;35.26
34925;BME280;21130;51.728;8.748;2023-04-04T11:32:48;101585.22;;;12.00;35.57
34925;BME280;21130;51.728;8.748;2023-04-04T11:35:15;101581.97;;;12.47;34.59
34925;BME280;21130;51.728;8.748;2023-04-04T11:37:57;101588.13;;;12.12;33.37
34925;BME280;21130;51.728;8.748;2023-04-04T11:40:33;101581.16;;;11.71;35.74
34925;BME280;21130;51.728;8.748;2023-04-04T11:42:59;101588.66;;;11.00;34.18
34925;BME280;21130;51.728;8.748;2023-04-04T11:45:29;101579.97;;;11.29;34.04
34925;BME280;21130;51.728;8.748;2023-04-04T11:47:56;101574.88;;;11.51;34.92
34925;BME280;21130;51.728;8.748;2023-04-04T11:50:23;101571.13;;;11.70;35.66
34925;BME280;21130;51.728;8.748;2023-04-04T11:52:52;101572.72;;;10.89;34.28
34925;BME280;21130;51.728;8.748;2023-04-04T11:55:20;101567.44;;;11.13;33.46
34925;BME280;21130;51.728;8.748;2023-04-04T11:57:47;101562.22;;;10.33;33.72
34925;BME280;21130;51.728;8.748;2023-04-04T12:00:28;101552.28;;;9.59;35.77
34925;BME280;21130;51.728;8.748;2023-04-04T12:02:54;101555.75;;;10.52;37.74
34925;BME280;21130;51.728;8.748;2023-04-04T12:05:21;101559.22;;;10.93;37.02
34925;BME280;21130;51.728;8.748;2023-04-04T12:07:48;101549.09;;;10.67;34.40
34925;BME280;21130;51.728;8.748;2023-04-04T12:10:17;101551.13;;;11.23;35.21
34925;BME280;21130;51.728;8.748;2023-04-04T12:12:44;101549.16;;;11.62;34.27
34925;BME280;21130;51.728;8.748;2023-04-04T12:15:12;101542.00;;;11.48;32.88
34925;BME280;21130;51.728;8.748;2023-04-04T12:17:39;101542.97;;;11.85;33.76
34925;BME280;21130;51.728;8.748;2023-04-04T12:20:08;101537.41;;;11.60;35.01
34925;BME280;21130;51.728;8.748;2023-04-04T12:22:35;101529.41;;;11.70;34.52
34925;BME280;21130;51.728;8.748;2023-04-04T12:25:03;101533.16;;;11.82;35.00
34925;BME280;21130;51.728;8.748;2023-04-04T12:27:32;101530.53;;;12.31;33.80
34925;BME280;21130;51.728;8.748;2023-04-04T12:29:59;101532.47;;;12.12;34.81
34925;BME280;21130;51.728;8.748;2023-04-04T12:32:28;101521.63;;;12.78;33.94
34925;BME280;21130;51.728;8.748;2023-04-04T12:34:59;101520.91;;;12.82;32.46
34925;BME280;21130;51.728;8.748;2023-04-04T12:37:27;101518.63;;;12.91;34.77
34925;BME280;21130;51.728;8.748;2023-04-04T12:39:54;101514.59;;;13.05;33.01
34925;BME280;21130;51.728;8.748;2023-04-04T12:42:23;101517.03;;;13.55;31.59
34925;BME280;21130;51.728;8.748;2023-04-04T12:44:54;101511.59;;;13.60;32.65
34925;BME280;21130;51.728;8.748;2023-04-04T12:47:21;101509.97;;;13.29;30.93
34925;BME280;21130;51.728;8.748;2023-04-04T12:49:52;101509.66;;;13.96;31.05